Corcovado, Argentina
Current Conditions -  °F | °C
As of 3:00 PM on Sunday 25 Jan 2015 (Local Time) from SCFT Reporting Station
Clear Clear  
Wind Chill: 70°   Ceiling: Unl
Heat Index: 70°   Visibility: NA
Dew Point: 39°   Wind: 7mph
Humidity: 33%   Direction: 280°W
Pressure: 29.88"   Gusts: NA
Location:  43.46°S, 71.09°W
Report Text: SCFT 251800Z AUTO 28006KT 210V310 //// SKC 21/04 Q1012
Loading
Personal Weather Stations






























Interactive Weather Map New forecast layout! Learn more

10-Day Weather Forecast

Advertisements
Track Severe Weather on mobile